sensor_id;sensor_type;location;lat;lon;timestamp;P1;durP1;ratioP1;P2;durP2;ratioP2
73951;SDS011;62304;47.662;18.324;2023-08-06T00:00:23;13.20;;;6.75;;
73951;SDS011;62304;47.662;18.324;2023-08-06T00:03:26;12.07;;;6.37;;
73951;SDS011;62304;47.662;18.324;2023-08-06T00:06:29;11.80;;;6.93;;
73951;SDS011;62304;47.662;18.324;2023-08-06T00:09:32;12.63;;;6.50;;
73951;SDS011;62304;47.662;18.324;2023-08-06T00:12:35;10.23;;;6.60;;
73951;SDS011;62304;47.662;18.324;2023-08-06T00:15:38;9.95;;;6.28;;
73951;SDS011;62304;47.662;18.324;2023-08-06T00:18:41;12.43;;;6.20;;
73951;SDS011;62304;47.662;18.324;2023-08-06T00:21:44;10.35;;;5.95;;
73951;SDS011;62304;47.662;18.324;2023-08-06T00:24:47;12.63;;;6.82;;
73951;SDS011;62304;47.662;18.324;2023-08-06T00:27:50;9.73;;;5.17;;
73951;SDS011;62304;47.662;18.324;2023-08-06T00:30:53;10.07;;;5.53;;
73951;SDS011;62304;47.662;18.324;2023-08-06T00:33:57;9.57;;;5.97;;
73951;SDS011;62304;47.662;18.324;2023-08-06T00:37:00;10.98;;;6.03;;
73951;SDS011;62304;47.662;18.324;2023-08-06T00:40:03;10.45;;;5.90;;
73951;SDS011;62304;47.662;18.324;2023-08-06T00:43:07;12.50;;;6.00;;
73951;SDS011;62304;47.662;18.324;2023-08-06T00:46:11;12.15;;;5.62;;
73951;SDS011;62304;47.662;18.324;2023-08-06T00:49:14;9.32;;;5.70;;
73951;SDS011;62304;47.662;18.324;2023-08-06T00:52:17;11.45;;;5.37;;
73951;SDS011;62304;47.662;18.324;2023-08-06T00:55:20;11.90;;;6.20;;
73951;SDS011;62304;47.662;18.324;2023-08-06T00:58:23;14.10;;;6.23;;
73951;SDS011;62304;47.662;18.324;2023-08-06T01:01:27;12.98;;;5.93;;
73951;SDS011;62304;47.662;18.324;2023-08-06T01:04:30;10.35;;;5.90;;
73951;SDS011;62304;47.662;18.324;2023-08-06T01:14:43;15.17;;;6.30;;
73951;SDS011;62304;47.662;18.324;2023-08-06T01:17:53;13.55;;;6.75;;
73951;SDS011;62304;47.662;18.324;2023-08-06T01:20:57;12.32;;;5.82;;
73951;SDS011;62304;47.662;18.324;2023-08-06T01:24:00;11.45;;;6.20;;
73951;SDS011;62304;47.662;18.324;2023-08-06T01:27:04;12.55;;;6.10;;
73951;SDS011;62304;47.662;18.324;2023-08-06T01:30:27;13.40;;;6.30;;
73951;SDS011;62304;47.662;18.324;2023-08-06T01:33:33;12.40;;;6.72;;
73951;SDS011;62304;47.662;18.324;2023-08-06T01:36:39;11.43;;;6.47;;
73951;SDS011;62304;47.662;18.324;2023-08-06T01:39:44;12.27;;;6.32;;
73951;SDS011;62304;47.662;18.324;2023-08-06T01:42:48;13.30;;;6.43;;
73951;SDS011;62304;47.662;18.324;2023-08-06T01:45:52;11.63;;;5.63;;
73951;SDS011;62304;47.662;18.324;2023-08-06T01:48:55;13.50;;;5.70;;
73951;SDS011;62304;47.662;18.324;2023-08-06T01:51:58;10.70;;;6.53;;
73951;SDS011;62304;47.662;18.324;2023-08-06T01:55:01;13.70;;;6.22;;
73951;SDS011;62304;47.662;18.324;2023-08-06T01:58:04;13.70;;;6.60;;
73951;SDS011;62304;47.662;18.324;2023-08-06T02:01:08;11.80;;;6.37;;
73951;SDS011;62304;47.662;18.324;2023-08-06T02:04:11;11.27;;;5.95;;
73951;SDS011;62304;47.662;18.324;2023-08-06T02:07:14;13.80;;;6.68;;
73951;SDS011;62304;47.662;18.324;2023-08-06T02:10:17;11.70;;;6.53;;
73951;SDS011;62304;47.662;18.324;2023-08-06T02:13:20;12.00;;;6.62;;
73951;SDS011;62304;47.662;18.324;2023-08-06T02:16:23;12.87;;;6.67;;
73951;SDS011;62304;47.662;18.324;2023-08-06T02:19:26;11.65;;;6.03;;
73951;SDS011;62304;47.662;18.324;2023-08-06T02:22:29;13.38;;;6.40;;
73951;SDS011;62304;47.662;18.324;2023-08-06T02:25:33;12.20;;;7.10;;
73951;SDS011;62304;47.662;18.324;2023-08-06T02:28:35;14.00;;;6.40;;
73951;SDS011;62304;47.662;18.324;2023-08-06T02:31:39;13.30;;;6.40;;
73951;SDS011;62304;47.662;18.324;2023-08-06T02:34:41;12.32;;;6.87;;
73951;SDS011;62304;47.662;18.324;2023-08-06T02:37:45;12.35;;;5.97;;
73951;SDS011;62304;47.662;18.324;2023-08-06T02:40:47;13.15;;;6.40;;
73951;SDS011;62304;47.662;18.324;2023-08-06T02:43:52;12.45;;;5.60;;
73951;SDS011;62304;47.662;18.324;2023-08-06T02:46:55;11.50;;;5.37;;
73951;SDS011;62304;47.662;18.324;2023-08-06T02:49:58;10.57;;;5.37;;
73951;SDS011;62304;47.662;18.324;2023-08-06T02:53:01;13.93;;;5.35;;
73951;SDS011;62304;47.662;18.324;2023-08-06T02:56:04;11.70;;;5.05;;
73951;SDS011;62304;47.662;18.324;2023-08-06T02:59:08;10.00;;;5.40;;
73951;SDS011;62304;47.662;18.324;2023-08-06T03:02:11;11.57;;;5.63;;
73951;SDS011;62304;47.662;18.324;2023-08-06T03:05:15;9.60;;;5.40;;
73951;SDS011;62304;47.662;18.324;2023-08-06T03:08:18;9.68;;;5.07;;
73951;SDS011;62304;47.662;18.324;2023-08-06T03:11:25;9.02;;;4.53;;
73951;SDS011;62304;47.662;18.324;2023-08-06T03:14:28;8.20;;;4.62;;
73951;SDS011;62304;47.662;18.324;2023-08-06T03:17:32;10.93;;;4.37;;
73951;SDS011;62304;47.662;18.324;2023-08-06T03:20:36;9.65;;;4.50;;
73951;SDS011;62304;47.662;18.324;2023-08-06T03:23:39;6.80;;;3.85;;
73951;SDS011;62304;47.662;18.324;2023-08-06T03:26:43;7.80;;;3.40;;
73951;SDS011;62304;47.662;18.324;2023-08-06T03:29:50;7.10;;;3.37;;
73951;SDS011;62304;47.662;18.324;2023-08-06T03:32:54;7.00;;;3.07;;
73951;SDS011;62304;47.662;18.324;2023-08-06T03:35:57;5.45;;;2.53;;
73951;SDS011;62304;47.662;18.324;2023-08-06T03:39:00;4.87;;;2.30;;
73951;SDS011;62304;47.662;18.324;2023-08-06T03:42:04;4.93;;;2.00;;
73951;SDS011;62304;47.662;18.324;2023-08-06T03:45:07;3.75;;;1.20;;
73951;SDS011;62304;47.662;18.324;2023-08-06T03:48:11;5.37;;;1.20;;
73951;SDS011;62304;47.662;18.324;2023-08-06T03:51:15;2.28;;;0.55;;
73951;SDS011;62304;47.662;18.324;2023-08-06T03:54:19;3.25;;;0.40;;
73951;SDS011;62304;47.662;18.324;2023-08-06T03:57:22;3.12;;;0.50;;
73951;SDS011;62304;47.662;18.324;2023-08-06T04:00:26;2.87;;;0.77;;
73951;SDS011;62304;47.662;18.324;2023-08-06T04:03:30;1.90;;;0.30;;
73951;SDS011;62304;47.662;18.324;2023-08-06T04:06:33;2.20;;;0.20;;
73951;SDS011;62304;47.662;18.324;2023-08-06T04:09:50;1.95;;;0.30;;
73951;SDS011;62304;47.662;18.324;2023-08-06T04:13:03;5.15;;;0.40;;
73951;SDS011;62304;47.662;18.324;2023-08-06T04:16:06;2.17;;;0.30;;
73951;SDS011;62304;47.662;18.324;2023-08-06T04:19:09;1.80;;;0.20;;
73951;SDS011;62304;47.662;18.324;2023-08-06T04:22:13;2.00;;;0.20;;
73951;SDS011;62304;47.662;18.324;2023-08-06T04:25:16;1.85;;;0.30;;
73951;SDS011;62304;47.662;18.324;2023-08-06T04:28:23;1.95;;;0.20;;
73951;SDS011;62304;47.662;18.324;2023-08-06T04:31:28;2.03;;;0.30;;
73951;SDS011;62304;47.662;18.324;2023-08-06T04:34:31;2.73;;;0.30;;
73951;SDS011;62304;47.662;18.324;2023-08-06T04:37:34;2.20;;;0.43;;
73951;SDS011;62304;47.662;18.324;2023-08-06T04:40:38;2.47;;;0.40;;
73951;SDS011;62304;47.662;18.324;2023-08-06T04:43:41;2.03;;;0.40;;
73951;SDS011;62304;47.662;18.324;2023-08-06T04:46:45;2.87;;;0.50;;
73951;SDS011;62304;47.662;18.324;2023-08-06T04:49:47;2.00;;;0.40;;
73951;SDS011;62304;47.662;18.324;2023-08-06T04:52:53;3.08;;;0.50;;
73951;SDS011;62304;47.662;18.324;2023-08-06T04:55:56;4.25;;;0.85;;
73951;SDS011;62304;47.662;18.324;2023-08-06T04:58:59;2.20;;;0.60;;
73951;SDS011;62304;47.662;18.324;2023-08-06T05:02:03;2.05;;;0.43;;
73951;SDS011;62304;47.662;18.324;2023-08-06T05:05:06;3.10;;;0.50;;
73951;SDS011;62304;47.662;18.324;2023-08-06T05:08:13;2.30;;;0.60;;
73951;SDS011;62304;47.662;18.324;2023-08-06T05:11:21;2.47;;;0.70;;
73951;SDS011;62304;47.662;18.324;2023-08-06T05:14:24;2.30;;;0.60;;
73951;SDS011;62304;47.662;18.324;2023-08-06T05:17:27;2.30;;;0.70;;
73951;SDS011;62304;47.662;18.324;2023-08-06T05:20:30;2.60;;;0.67;;
73951;SDS011;62304;47.662;18.324;2023-08-06T05:23:33;3.08;;;0.80;;
73951;SDS011;62304;47.662;18.324;2023-08-06T05:26:36;3.45;;;0.80;;
73951;SDS011;62304;47.662;18.324;2023-08-06T05:29:39;2.33;;;0.70;;
73951;SDS011;62304;47.662;18.324;2023-08-06T05:32:42;4.07;;;0.90;;
73951;SDS011;62304;47.662;18.324;2023-08-06T05:35:45;2.30;;;0.70;;
73951;SDS011;62304;47.662;18.324;2023-08-06T05:38:48;2.72;;;0.90;;
73951;SDS011;62304;47.662;18.324;2023-08-06T05:41:51;2.55;;;0.95;;
73951;SDS011;62304;47.662;18.324;2023-08-06T05:44:57;2.58;;;0.88;;
73951;SDS011;62304;47.662;18.324;2023-08-06T05:48:01;2.37;;;0.52;;
73951;SDS011;62304;47.662;18.324;2023-08-06T05:51:06;2.10;;;0.40;;
73951;SDS011;62304;47.662;18.324;2023-08-06T05:54:09;2.20;;;0.60;;
73951;SDS011;62304;47.662;18.324;2023-08-06T05:57:12;2.55;;;0.40;;
73951;SDS011;62304;47.662;18.324;2023-08-06T06:00:15;2.25;;;0.30;;
73951;SDS011;62304;47.662;18.324;2023-08-06T06:03:20;2.00;;;0.40;;
73951;SDS011;62304;47.662;18.324;2023-08-06T06:06:23;3.20;;;0.47;;
73951;SDS011;62304;47.662;18.324;2023-08-06T06:09:26;3.22;;;0.43;;
73951;SDS011;62304;47.662;18.324;2023-08-06T06:12:29;2.20;;;0.50;;
73951;SDS011;62304;47.662;18.324;2023-08-06T06:15:32;2.20;;;0.50;;
73951;SDS011;62304;47.662;18.324;2023-08-06T06:18:36;2.25;;;0.60;;
73951;SDS011;62304;47.662;18.324;2023-08-06T06:21:39;2.37;;;0.70;;
73951;SDS011;62304;47.662;18.324;2023-08-06T06:24:42;2.22;;;0.57;;
73951;SDS011;62304;47.662;18.324;2023-08-06T06:27:45;2.40;;;0.73;;
73951;SDS011;62304;47.662;18.324;2023-08-06T06:30:48;2.67;;;0.88;;
73951;SDS011;62304;47.662;18.324;2023-08-06T06:33:51;3.45;;;1.00;;
73951;SDS011;62304;47.662;18.324;2023-08-06T06:36:56;3.20;;;0.90;;
73951;SDS011;62304;47.662;18.324;2023-08-06T06:40:00;2.65;;;0.82;;
73951;SDS011;62304;47.662;18.324;2023-08-06T06:43:02;2.50;;;0.88;;
73951;SDS011;62304;47.662;18.324;2023-08-06T06:46:05;2.70;;;0.90;;
73951;SDS011;62304;47.662;18.324;2023-08-06T06:49:08;3.30;;;1.00;;
73951;SDS011;62304;47.662;18.324;2023-08-06T06:52:11;2.60;;;0.80;;
73951;SDS011;62304;47.662;18.324;2023-08-06T06:55:14;2.50;;;0.73;;
73951;SDS011;62304;47.662;18.324;2023-08-06T06:58:18;2.50;;;0.82;;
73951;SDS011;62304;47.662;18.324;2023-08-06T07:01:20;2.55;;;0.80;;
73951;SDS011;62304;47.662;18.324;2023-08-06T07:04:24;2.90;;;0.80;;
73951;SDS011;62304;47.662;18.324;2023-08-06T07:07:27;2.67;;;0.77;;
73951;SDS011;62304;47.662;18.324;2023-08-06T07:10:30;2.50;;;0.90;;
73951;SDS011;62304;47.662;18.324;2023-08-06T07:13:33;4.05;;;0.93;;
73951;SDS011;62304;47.662;18.324;2023-08-06T07:16:37;3.08;;;1.15;;
73951;SDS011;62304;47.662;18.324;2023-08-06T07:19:40;2.90;;;0.90;;
73951;SDS011;62304;47.662;18.324;2023-08-06T07:22:43;2.90;;;1.30;;
73951;SDS011;62304;47.662;18.324;2023-08-06T07:25:47;3.00;;;1.20;;
73951;SDS011;62304;47.662;18.324;2023-08-06T07:28:51;2.97;;;1.12;;
73951;SDS011;62304;47.662;18.324;2023-08-06T07:31:53;2.95;;;1.20;;
73951;SDS011;62304;47.662;18.324;2023-08-06T07:34:58;3.65;;;1.30;;
73951;SDS011;62304;47.662;18.324;2023-08-06T07:38:02;3.47;;;1.20;;
73951;SDS011;62304;47.662;18.324;2023-08-06T07:41:06;3.10;;;1.40;;
73951;SDS011;62304;47.662;18.324;2023-08-06T07:44:09;3.60;;;1.35;;
73951;SDS011;62304;47.662;18.324;2023-08-06T07:47:13;3.62;;;1.50;;
73951;SDS011;62304;47.662;18.324;2023-08-06T07:50:16;3.30;;;1.50;;
73951;SDS011;62304;47.662;18.324;2023-08-06T07:53:22;4.60;;;1.50;;
73951;SDS011;62304;47.662;18.324;2023-08-06T07:56:29;3.37;;;1.37;;
73951;SDS011;62304;47.662;18.324;2023-08-06T07:59:32;4.37;;;1.50;;
73951;SDS011;62304;47.662;18.324;2023-08-06T08:02:34;3.78;;;1.33;;
73951;SDS011;62304;47.662;18.324;2023-08-06T08:05:38;5.05;;;1.60;;
73951;SDS011;62304;47.662;18.324;2023-08-06T08:08:40;4.13;;;1.30;;
73951;SDS011;62304;47.662;18.324;2023-08-06T08:11:44;6.28;;;2.00;;
73951;SDS011;62304;47.662;18.324;2023-08-06T08:14:48;4.07;;;1.17;;
73951;SDS011;62304;47.662;18.324;2023-08-06T08:17:51;4.45;;;1.48;;
73951;SDS011;62304;47.662;18.324;2023-08-06T08:20:55;3.10;;;1.33;;
73951;SDS011;62304;47.662;18.324;2023-08-06T08:23:59;3.83;;;1.40;;
73951;SDS011;62304;47.662;18.324;2023-08-06T08:27:02;4.68;;;1.10;;
73951;SDS011;62304;47.662;18.324;2023-08-06T08:30:06;3.17;;;1.20;;
73951;SDS011;62304;47.662;18.324;2023-08-06T08:33:09;3.20;;;1.27;;
73951;SDS011;62304;47.662;18.324;2023-08-06T08:36:12;2.90;;;1.12;;
73951;SDS011;62304;47.662;18.324;2023-08-06T08:39:15;3.47;;;0.97;;
73951;SDS011;62304;47.662;18.324;2023-08-06T08:42:18;3.58;;;1.65;;
73951;SDS011;62304;47.662;18.324;2023-08-06T08:45:22;5.07;;;1.20;;
73951;SDS011;62304;47.662;18.324;2023-08-06T08:48:28;3.55;;;1.20;;
73951;SDS011;62304;47.662;18.324;2023-08-06T08:51:32;3.12;;;1.05;;
73951;SDS011;62304;47.662;18.324;2023-08-06T08:54:38;3.33;;;1.00;;
73951;SDS011;62304;47.662;18.324;2023-08-06T08:57:41;4.22;;;0.90;;
73951;SDS011;62304;47.662;18.324;2023-08-06T09:00:48;3.42;;;1.00;;
73951;SDS011;62304;47.662;18.324;2023-08-06T09:03:52;3.20;;;1.20;;
73951;SDS011;62304;47.662;18.324;2023-08-06T09:06:58;3.40;;;1.08;;
73951;SDS011;62304;47.662;18.324;2023-08-06T09:10:02;3.30;;;1.10;;
73951;SDS011;62304;47.662;18.324;2023-08-06T09:13:07;3.37;;;1.20;;
73951;SDS011;62304;47.662;18.324;2023-08-06T09:16:11;3.95;;;1.30;;
73951;SDS011;62304;47.662;18.324;2023-08-06T09:19:14;4.35;;;0.90;;
73951;SDS011;62304;47.662;18.324;2023-08-06T09:22:20;3.50;;;1.23;;
73951;SDS011;62304;47.662;18.324;2023-08-06T09:25:23;3.10;;;1.27;;
73951;SDS011;62304;47.662;18.324;2023-08-06T09:28:36;3.65;;;1.10;;
73951;SDS011;62304;47.662;18.324;2023-08-06T09:31:46;3.72;;;1.00;;
73951;SDS011;62304;47.662;18.324;2023-08-06T09:34:55;2.90;;;1.10;;
73951;SDS011;62304;47.662;18.324;2023-08-06T09:38:09;3.40;;;0.95;;
73951;SDS011;62304;47.662;18.324;2023-08-06T09:41:22;3.00;;;0.80;;
73951;SDS011;62304;47.662;18.324;2023-08-06T09:44:31;3.40;;;1.12;;
73951;SDS011;62304;47.662;18.324;2023-08-06T09:47:36;3.47;;;1.12;;
73951;SDS011;62304;47.662;18.324;2023-08-06T09:50:39;4.60;;;1.15;;
73951;SDS011;62304;47.662;18.324;2023-08-06T09:53:43;3.45;;;0.93;;
73951;SDS011;62304;47.662;18.324;2023-08-06T09:56:48;3.27;;;1.17;;
73951;SDS011;62304;47.662;18.324;2023-08-06T09:59:51;4.00;;;1.10;;
73951;SDS011;62304;47.662;18.324;2023-08-06T10:02:55;3.25;;;1.15;;
73951;SDS011;62304;47.662;18.324;2023-08-06T10:06:03;2.72;;;0.80;;
73951;SDS011;62304;47.662;18.324;2023-08-06T10:09:09;2.85;;;0.88;;
73951;SDS011;62304;47.662;18.324;2023-08-06T10:12:12;3.27;;;0.97;;
73951;SDS011;62304;47.662;18.324;2023-08-06T10:15:17;3.20;;;1.30;;
73951;SDS011;62304;47.662;18.324;2023-08-06T10:18:28;3.85;;;0.85;;
73951;SDS011;62304;47.662;18.324;2023-08-06T10:21:32;3.10;;;1.02;;
73951;SDS011;62304;47.662;18.324;2023-08-06T10:24:57;3.20;;;0.90;;
73951;SDS011;62304;47.662;18.324;2023-08-06T10:28:10;4.30;;;1.40;;
73951;SDS011;62304;47.662;18.324;2023-08-06T10:31:16;2.87;;;1.00;;
73951;SDS011;62304;47.662;18.324;2023-08-06T10:34:19;3.03;;;1.02;;
73951;SDS011;62304;47.662;18.324;2023-08-06T10:37:22;3.42;;;1.23;;
73951;SDS011;62304;47.662;18.324;2023-08-06T10:40:28;4.80;;;1.23;;
73951;SDS011;62304;47.662;18.324;2023-08-06T10:43:34;3.10;;;0.97;;
73951;SDS011;62304;47.662;18.324;2023-08-06T10:46:40;3.00;;;1.00;;
73951;SDS011;62304;47.662;18.324;2023-08-06T10:49:43;3.62;;;1.20;;
73951;SDS011;62304;47.662;18.324;2023-08-06T10:52:47;3.92;;;1.02;;
73951;SDS011;62304;47.662;18.324;2023-08-06T10:55:53;3.15;;;1.30;;
73951;SDS011;62304;47.662;18.324;2023-08-06T10:58:56;4.80;;;1.20;;
73951;SDS011;62304;47.662;18.324;2023-08-06T11:02:00;4.00;;;1.23;;
73951;SDS011;62304;47.662;18.324;2023-08-06T11:05:07;3.58;;;1.33;;
73951;SDS011;62304;47.662;18.324;2023-08-06T11:08:11;3.90;;;1.10;;
73951;SDS011;62304;47.662;18.324;2023-08-06T11:11:15;3.30;;;1.30;;
73951;SDS011;62304;47.662;18.324;2023-08-06T11:14:19;3.83;;;1.30;;
73951;SDS011;62304;47.662;18.324;2023-08-06T11:17:22;4.07;;;1.73;;
73951;SDS011;62304;47.662;18.324;2023-08-06T11:20:25;4.00;;;1.70;;
73951;SDS011;62304;47.662;18.324;2023-08-06T11:23:29;4.03;;;1.70;;
73951;SDS011;62304;47.662;18.324;2023-08-06T11:26:32;4.60;;;1.80;;
73951;SDS011;62304;47.662;18.324;2023-08-06T11:29:37;3.70;;;1.90;;
73951;SDS011;62304;47.662;18.324;2023-08-06T11:32:47;3.58;;;1.77;;
73951;SDS011;62304;47.662;18.324;2023-08-06T11:35:51;4.37;;;1.92;;
73951;SDS011;62304;47.662;18.324;2023-08-06T11:38:54;4.00;;;2.10;;
73951;SDS011;62304;47.662;18.324;2023-08-06T11:41:57;3.85;;;1.85;;
73951;SDS011;62304;47.662;18.324;2023-08-06T11:45:03;3.60;;;1.50;;
73951;SDS011;62304;47.662;18.324;2023-08-06T11:48:06;4.85;;;1.85;;
73951;SDS011;62304;47.662;18.324;2023-08-06T11:51:13;3.85;;;1.90;;
73951;SDS011;62304;47.662;18.324;2023-08-06T11:54:29;3.62;;;1.60;;
73951;SDS011;62304;47.662;18.324;2023-08-06T11:57:37;4.65;;;1.75;;
73951;SDS011;62304;47.662;18.324;2023-08-06T12:00:42;3.87;;;1.90;;
73951;SDS011;62304;47.662;18.324;2023-08-06T12:03:45;3.12;;;1.35;;
73951;SDS011;62304;47.662;18.324;2023-08-06T12:06:49;4.25;;;1.83;;
73951;SDS011;62304;47.662;18.324;2023-08-06T12:09:52;4.95;;;1.50;;
73951;SDS011;62304;47.662;18.324;2023-08-06T12:12:55;4.07;;;1.23;;
73951;SDS011;62304;47.662;18.324;2023-08-06T12:15:59;4.27;;;1.70;;
73951;SDS011;62304;47.662;18.324;2023-08-06T12:19:01;3.10;;;1.30;;
73951;SDS011;62304;47.662;18.324;2023-08-06T12:22:05;4.05;;;1.60;;
73951;SDS011;62304;47.662;18.324;2023-08-06T12:25:09;3.70;;;1.55;;
73951;SDS011;62304;47.662;18.324;2023-08-06T12:28:15;3.55;;;1.55;;
73951;SDS011;62304;47.662;18.324;2023-08-06T12:31:18;3.33;;;1.40;;
73951;SDS011;62304;47.662;18.324;2023-08-06T12:34:21;3.35;;;1.30;;
73951;SDS011;62304;47.662;18.324;2023-08-06T12:37:28;3.08;;;1.23;;
73951;SDS011;62304;47.662;18.324;2023-08-06T12:40:32;3.22;;;1.23;;
73951;SDS011;62304;47.662;18.324;2023-08-06T12:43:41;3.47;;;1.50;;
73951;SDS011;62304;47.662;18.324;2023-08-06T12:46:44;3.40;;;1.43;;
73951;SDS011;62304;47.662;18.324;2023-08-06T12:49:47;4.60;;;1.70;;
73951;SDS011;62304;47.662;18.324;2023-08-06T12:52:50;3.47;;;1.70;;
73951;SDS011;62304;47.662;18.324;2023-08-06T12:55:53;4.18;;;1.80;;
73951;SDS011;62304;47.662;18.324;2023-08-06T12:58:56;3.92;;;1.48;;
73951;SDS011;62304;47.662;18.324;2023-08-06T13:01:59;3.70;;;1.60;;
73951;SDS011;62304;47.662;18.324;2023-08-06T13:05:04;3.78;;;1.77;;
73951;SDS011;62304;47.662;18.324;2023-08-06T13:08:09;4.10;;;1.90;;
73951;SDS011;62304;47.662;18.324;2023-08-06T13:11:13;6.22;;;1.40;;
73951;SDS011;62304;47.662;18.324;2023-08-06T13:14:17;3.78;;;1.52;;
73951;SDS011;62304;47.662;18.324;2023-08-06T13:17:20;3.13;;;1.23;;
73951;SDS011;62304;47.662;18.324;2023-08-06T13:20:24;3.50;;;1.40;;
73951;SDS011;62304;47.662;18.324;2023-08-06T13:23:28;3.55;;;1.25;;
73951;SDS011;62304;47.662;18.324;2023-08-06T13:26:31;5.35;;;1.30;;
73951;SDS011;62304;47.662;18.324;2023-08-06T13:29:35;3.15;;;1.30;;
73951;SDS011;62304;47.662;18.324;2023-08-06T13:32:38;3.67;;;1.57;;
73951;SDS011;62304;47.662;18.324;2023-08-06T13:35:42;3.25;;;1.30;;
73951;SDS011;62304;47.662;18.324;2023-08-06T13:38:45;3.33;;;1.20;;
73951;SDS011;62304;47.662;18.324;2023-08-06T13:41:49;3.28;;;1.10;;
73951;SDS011;62304;47.662;18.324;2023-08-06T13:44:53;3.25;;;1.42;;
73951;SDS011;62304;47.662;18.324;2023-08-06T13:48:02;3.60;;;1.20;;
73951;SDS011;62304;47.662;18.324;2023-08-06T13:51:06;3.67;;;1.30;;
73951;SDS011;62304;47.662;18.324;2023-08-06T13:54:11;3.42;;;1.40;;
73951;SDS011;62304;47.662;18.324;2023-08-06T13:57:15;3.65;;;1.45;;
73951;SDS011;62304;47.662;18.324;2023-08-06T14:00:20;4.37;;;1.50;;
73951;SDS011;62304;47.662;18.324;2023-08-06T14:03:24;4.40;;;1.43;;
73951;SDS011;62304;47.662;18.324;2023-08-06T14:06:27;3.65;;;1.35;;
73951;SDS011;62304;47.662;18.324;2023-08-06T14:09:31;4.40;;;1.50;;
73951;SDS011;62304;47.662;18.324;2023-08-06T14:12:37;4.07;;;1.60;;
73951;SDS011;62304;47.662;18.324;2023-08-06T14:15:41;3.30;;;1.50;;
73951;SDS011;62304;47.662;18.324;2023-08-06T14:18:49;3.30;;;1.60;;
73951;SDS011;62304;47.662;18.324;2023-08-06T14:21:53;3.72;;;1.67;;
73951;SDS011;62304;47.662;18.324;2023-08-06T14:24:58;4.78;;;1.92;;
73951;SDS011;62304;47.662;18.324;2023-08-06T14:28:02;3.47;;;1.45;;
73951;SDS011;62304;47.662;18.324;2023-08-06T14:31:06;3.30;;;1.55;;
73951;SDS011;62304;47.662;18.324;2023-08-06T14:34:09;4.20;;;1.50;;
73951;SDS011;62304;47.662;18.324;2023-08-06T14:37:13;3.78;;;1.48;;
73951;SDS011;62304;47.662;18.324;2023-08-06T14:40:17;4.35;;;1.60;;
73951;SDS011;62304;47.662;18.324;2023-08-06T14:43:20;4.37;;;1.42;;
73951;SDS011;62304;47.662;18.324;2023-08-06T14:46:25;3.67;;;1.40;;
73951;SDS011;62304;47.662;18.324;2023-08-06T14:49:29;3.87;;;1.33;;
73951;SDS011;62304;47.662;18.324;2023-08-06T14:52:32;3.05;;;1.10;;
73951;SDS011;62304;47.662;18.324;2023-08-06T14:55:36;3.62;;;1.30;;
73951;SDS011;62304;47.662;18.324;2023-08-06T14:58:39;3.17;;;1.20;;
73951;SDS011;62304;47.662;18.324;2023-08-06T15:01:43;3.33;;;1.30;;
73951;SDS011;62304;47.662;18.324;2023-08-06T15:04:47;2.80;;;1.00;;
73951;SDS011;62304;47.662;18.324;2023-08-06T15:07:53;3.25;;;1.17;;
73951;SDS011;62304;47.662;18.324;2023-08-06T15:10:57;3.15;;;1.35;;
73951;SDS011;62304;47.662;18.324;2023-08-06T15:14:01;2.80;;;0.98;;
73951;SDS011;62304;47.662;18.324;2023-08-06T15:17:08;3.25;;;1.30;;
73951;SDS011;62304;47.662;18.324;2023-08-06T15:20:13;3.27;;;1.27;;
73951;SDS011;62304;47.662;18.324;2023-08-06T15:23:23;4.50;;;1.50;;
73951;SDS011;62304;47.662;18.324;2023-08-06T15:26:28;3.70;;;1.20;;
73951;SDS011;62304;47.662;18.324;2023-08-06T15:29:33;3.42;;;1.20;;
73951;SDS011;62304;47.662;18.324;2023-08-06T15:32:37;3.75;;;1.35;;
73951;SDS011;62304;47.662;18.324;2023-08-06T15:35:46;3.40;;;1.53;;
73951;SDS011;62304;47.662;18.324;2023-08-06T15:38:52;3.30;;;1.40;;
73951;SDS011;62304;47.662;18.324;2023-08-06T15:41:56;3.30;;;1.20;;
73951;SDS011;62304;47.662;18.324;2023-08-06T15:45:00;3.47;;;1.30;;
73951;SDS011;62304;47.662;18.324;2023-08-06T15:48:06;3.00;;;1.20;;
73951;SDS011;62304;47.662;18.324;2023-08-06T15:51:12;3.70;;;1.20;;
73951;SDS011;62304;47.662;18.324;2023-08-06T15:54:15;2.90;;;1.10;;
73951;SDS011;62304;47.662;18.324;2023-08-06T15:57:19;3.20;;;1.25;;
73951;SDS011;62304;47.662;18.324;2023-08-06T16:00:23;3.20;;;1.08;;
73951;SDS011;62304;47.662;18.324;2023-08-06T16:03:28;3.10;;;1.00;;
73951;SDS011;62304;47.662;18.324;2023-08-06T16:06:31;4.10;;;1.07;;
73951;SDS011;62304;47.662;18.324;2023-08-06T16:09:36;3.12;;;0.93;;
73951;SDS011;62304;47.662;18.324;2023-08-06T16:12:39;3.05;;;1.00;;
73951;SDS011;62304;47.662;18.324;2023-08-06T16:15:44;2.90;;;0.90;;
73951;SDS011;62304;47.662;18.324;2023-08-06T16:18:48;2.80;;;1.00;;
73951;SDS011;62304;47.662;18.324;2023-08-06T16:21:52;3.87;;;1.00;;
73951;SDS011;62304;47.662;18.324;2023-08-06T16:24:55;2.75;;;0.88;;
73951;SDS011;62304;47.662;18.324;2023-08-06T16:28:00;3.28;;;0.98;;
73951;SDS011;62304;47.662;18.324;2023-08-06T16:31:03;4.03;;;0.90;;
73951;SDS011;62304;47.662;18.324;2023-08-06T16:34:07;2.97;;;0.80;;
73951;SDS011;62304;47.662;18.324;2023-08-06T16:37:12;2.83;;;0.90;;
73951;SDS011;62304;47.662;18.324;2023-08-06T16:40:16;3.20;;;0.90;;
73951;SDS011;62304;47.662;18.324;2023-08-06T16:43:19;4.85;;;1.15;;
73951;SDS011;62304;47.662;18.324;2023-08-06T16:46:28;3.78;;;1.05;;
73951;SDS011;62304;47.662;18.324;2023-08-06T16:49:32;2.80;;;0.80;;
73951;SDS011;62304;47.662;18.324;2023-08-06T16:52:37;3.57;;;0.70;;
73951;SDS011;62304;47.662;18.324;2023-08-06T16:55:40;3.15;;;1.10;;
73951;SDS011;62304;47.662;18.324;2023-08-06T16:58:44;3.05;;;0.90;;
73951;SDS011;62304;47.662;18.324;2023-08-06T17:01:48;3.30;;;0.90;;
73951;SDS011;62304;47.662;18.324;2023-08-06T17:04:52;2.75;;;0.85;;
73951;SDS011;62304;47.662;18.324;2023-08-06T17:07:55;3.03;;;0.90;;
73951;SDS011;62304;47.662;18.324;2023-08-06T17:11:00;5.05;;;1.20;;
73951;SDS011;62304;47.662;18.324;2023-08-06T17:14:05;3.30;;;1.35;;
73951;SDS011;62304;47.662;18.324;2023-08-06T17:17:09;3.58;;;1.20;;
73951;SDS011;62304;47.662;18.324;2023-08-06T17:20:14;3.25;;;0.90;;
73951;SDS011;62304;47.662;18.324;2023-08-06T17:23:18;4.37;;;1.17;;
73951;SDS011;62304;47.662;18.324;2023-08-06T17:26:21;4.12;;;1.08;;
73951;SDS011;62304;47.662;18.324;2023-08-06T17:29:25;3.10;;;1.20;;
73951;SDS011;62304;47.662;18.324;2023-08-06T17:32:29;5.03;;;1.33;;
73951;SDS011;62304;47.662;18.324;2023-08-06T17:35:33;3.42;;;1.20;;
73951;SDS011;62304;47.662;18.324;2023-08-06T17:38:37;5.23;;;1.50;;
73951;SDS011;62304;47.662;18.324;2023-08-06T17:41:41;3.55;;;1.12;;
73951;SDS011;62304;47.662;18.324;2023-08-06T17:44:48;3.42;;;1.52;;
73951;SDS011;62304;47.662;18.324;2023-08-06T17:47:51;3.10;;;1.00;;
73951;SDS011;62304;47.662;18.324;2023-08-06T17:50:55;3.65;;;1.20;;
73951;SDS011;62304;47.662;18.324;2023-08-06T17:53:59;3.47;;;1.27;;
73951;SDS011;62304;47.662;18.324;2023-08-06T17:57:03;5.68;;;1.50;;
73951;SDS011;62304;47.662;18.324;2023-08-06T18:00:08;4.05;;;1.42;;
73951;SDS011;62304;47.662;18.324;2023-08-06T18:03:12;4.90;;;1.35;;
73951;SDS011;62304;47.662;18.324;2023-08-06T18:06:17;3.83;;;1.37;;
73951;SDS011;62304;47.662;18.324;2023-08-06T18:09:20;3.37;;;1.37;;
73951;SDS011;62304;47.662;18.324;2023-08-06T18:12:24;3.75;;;1.60;;
73951;SDS011;62304;47.662;18.324;2023-08-06T18:15:28;4.78;;;1.55;;
73951;SDS011;62304;47.662;18.324;2023-08-06T18:18:32;4.18;;;1.70;;